Flight Track Log - Related Links

Times and Time Zones

All times are in EST time to prevent confusion due to time zone crossing. See the N27XP flight status page for this flight to view local times or setup timezone preferences in your user account.

Time Position Orientation Groundspeed Altitude Reporting Facility
EST Latitude Longitude Course Direction KTS MPH feet Rate Location/Type
Mon 10:04:00 AM 35.2849 -79.7746 283° West  Level FlightAware Approximate
Mon 10:04:45 AM 35.3094 -79.9922 280° West 251 289 6,000  Level Atlanta Center
Mon 10:05:00 AM 35.2967 -79.8393 283° West  Level FlightAware Approximate
Mon 10:05:34 AM 35.3222 -80.0628 283° West 253 291 5,900  Level Atlanta Center
Mon 10:06:00 AM 35.3084 -79.9040 283° West  Level FlightAware Approximate
Mon 10:06:35 AM 35.3331 -80.1461 279° West 249 287 5,000  Level Atlanta Center
Mon 10:07:00 AM 35.3167 -79.9691 270° West  Level FlightAware Approximate
Mon 10:07:36 AM 35.3442 -80.2272 280° West 239 275 4,500  Level Atlanta Center
Mon 10:08:00 AM 35.3170 -80.0354 280° West  Level FlightAware Approximate
Mon 10:08:37 AM 35.3569 -80.3056 281° West 238 274 4,000  Level Atlanta Center
Mon 10:09:00 AM 35.3265 -80.1006 280° West  Level FlightAware Approximate
Mon 10:09:38 AM 35.3697 -80.3839 281° West 232 267 4,000  Level Atlanta Center
Mon 10:10:00 AM 35.3360 -80.1659 280° West  Level FlightAware Approximate
Mon 10:10:45 AM 35.4053 -80.4639 299° West 242 278 4,000  Level Atlanta Center
Mon 10:11:40 AM 35.4367 -80.5314 300° West 241 277 4,000 49 Level Atlanta Center
Mon 10:12:47 AM 35.4764 -80.6114 301° West 242 278 4,100 49 Climbing Atlanta Center
Mon 10:13:42 AM 35.5031 -80.6739 298° West 242 278 4,100 -310 Level Atlanta Center
Mon 10:14:43 AM 35.5325 -80.7544 294° West 243 280 3,500 -393 Descending Atlanta Center
Mon 10:15:44 AM 35.5325 -80.8308 270° West 236 272 3,300 -103 Descending Atlanta Center
Mon 10:16:39 AM 35.5278 -80.8975 265° West 218 251 3,300  Level Atlanta Center
Mon 10:18:00 AM 35.5130 -80.9854 282° West  Level Estimated
Mon 10:25:00 AM 35.4667 -81.1500 270° West  Level FlightAware Approximate
Mon 10:26:00 AM 35.4833 -81.1612 270° West  Level Estimated
Mon 10:27:00 AM 35.4833 -81.1612 270° West  Level Estimated
Mon 10:28:00 AM 35.4833 -81.1612 270° West  Level Estimated

Login

Don't have an account? Register now (free) for customized features, flight alerts, and more!